Main page
METAR-TAF:

METAR-TAF

Airports :

Svolvær Airport. Helle

Svolvær, Norway

latitude: 68-15N, longitude: 014-40E, elevation: 0 m

Current weather observation

The report was made 25 minutes ago, at 17:20 UTC
Wind 14 kt from the North
Temperature 14°C
Humidity 77%
Pressure 1009 hPa
Visibility 10 km or more

METAR: ENSH 151720Z AUTO 01014KT 9999 NCD 14/10 Q1009 RMK WIND 0150FT /////KT

Time: 19:45 (17:45 UTC)

Forecast

The report was made 9 hours and 45 minutes ago, at 08:00 UTC
Forecast valid from 15 at 09 UTC to 15 at 13 UTC
Wind 9 kt from the North/Northeast
Visibility 10 km or more
Few clouds at a height of 2000 ft

TAF: ENSH 150800Z 1509/1513 02009KT 9999 FEW020

Weather observations and forecasts of more than 4000 airports (METAR and TAF reports).

The available stations are represented by yellow and red dots on the map.

Hover mouse over dot to see the name of the station.

Then click to see weather observations and forecasts.

To change the map : click on the green buttons with a black cross to zoom in, on the green button with a dash to zoom out, or on the green arrows for adjacent maps.


METAR-TAF: